Time;durP1;ratioP1;P1;durP2;ratioP2;P2;SDS_P1;SDS_P2;PMS_P1;PMS_P2;Temp;Humidity;BMP_temperature;BMP_pressure;BME280_temperature;BME280_humidity;BME280_pressure;Samples;Min_cycle;Max_cycle;Signal;HPM_P1;HPM_P2
2022/11/19 05:04:02;;;;;;;;;;;;;;;;;;;;;
2022/11/19 05:07:22;;;;;;;7.07;4.95;;;;;;;;;;6162973;23;20015;-95
2022/11/19 05:10:04;;;;;;;6.32;5.07;;;;;;;;;;6219383;23;20103;-93
2022/11/19 05:15:26;;;;;;;8.70;6.00;;;;;;;;;;6192080;23;20358;-91
2022/11/19 05:17:53;;;;;;;8.85;5.90;;;;;;;;;;6168120;23;20036;-92
2022/11/19 05:20:28;;;;;;;9.40;5.05;;;;;;;;;;6131174;23;20022;-92
2022/11/19 05:22:57;;;;;;;6.63;5.18;;;;;;;;;;6107072;23;20499;-92
2022/11/19 05:25:27;;;;;;;8.35;5.97;;;;;;;;;;6106416;23;20026;-93
2022/11/19 05:27:58;;;;;;;8.20;5.45;;;;;;;;;;6106032;23;20017;-93
2022/11/19 05:30:25;;;;;;;6.10;4.57;;;;;;;;;;6106754;23;20029;-93
2022/11/19 05:32:56;;;;;;;8.27;5.30;;;;;;;;;;6106722;23;20052;-93
2022/11/19 05:35:22;;;;;;;5.38;4.53;;;;;;;;;;6106662;23;20060;-92
2022/11/19 05:37:54;;;;;;;7.55;5.45;;;;;;;;;;6107423;23;20022;-92
2022/11/19 05:40:25;;;;;;;5.70;4.25;;;;;;;;;;6106774;23;20028;-92
2022/11/19 05:42:51;;;;;;;7.32;5.35;;;;;;;;;;6107122;23;20481;-92
2022/11/19 05:45:18;;;;;;;9.23;5.15;;;;;;;;;;6106853;23;20026;-93
2022/11/19 05:47:55;;;;;;;8.18;5.55;;;;;;;;;;6108727;23;20064;-92
2022/11/19 05:50:21;;;;;;;9.68;5.85;;;;;;;;;;6114118;23;20021;-92
2022/11/19 05:52:47;;;;;;;6.85;5.15;;;;;;;;;;6167776;23;20021;-92
2022/11/19 05:55:13;;;;;;;9.13;5.47;;;;;;;;;;6160390;23;20024;-93
2022/11/19 05:57:42;;;;;;;8.27;5.10;;;;;;;;;;6137317;23;20331;-93
2022/11/19 06:00:09;;;;;;;6.78;4.97;;;;;;;;;;6136719;23;20455;-92
2022/11/19 06:02:35;;;;;;;6.15;4.75;;;;;;;;;;6136994;23;20055;-93
2022/11/19 06:05:02;;;;;;;6.93;4.72;;;;;;;;;;6136552;23;20028;-93
2022/11/19 06:07:28;;;;;;;6.75;4.82;;;;;;;;;;6161989;23;20052;-94
2022/11/19 06:09:54;;;;;;;7.00;5.32;;;;;;;;;;6137107;23;20080;-94
2022/11/19 06:12:20;;;;;;;5.65;4.38;;;;;;;;;;6188062;23;20021;-91
2022/11/19 06:14:46;;;;;;;6.22;4.78;;;;;;;;;;6137289;23;20027;-93
2022/11/19 06:17:12;;;;;;;8.40;5.57;;;;;;;;;;6162173;23;20029;-91
2022/11/19 06:19:38;;;;;;;7.45;5.80;;;;;;;;;;6137307;23;20021;-95
2022/11/19 06:22:04;;;;;;;10.40;5.43;;;;;;;;;;6137857;23;20032;-93
2022/11/19 06:24:33;;;;;;;7.70;5.50;;;;;;;;;;6137198;23;20017;-91
2022/11/19 06:26:59;;;;;;;6.95;5.05;;;;;;;;;;6161480;23;20025;-91
2022/11/19 06:29:25;;;;;;;8.73;4.88;;;;;;;;;;6136285;23;20021;-87
2022/11/19 06:31:51;;;;;;;7.07;4.90;;;;;;;;;;6134891;23;20466;-87
2022/11/19 06:34:17;;;;;;;8.85;5.95;;;;;;;;;;6160243;23;20057;-87
2022/11/19 06:36:46;;;;;;;6.20;5.03;;;;;;;;;;6160215;23;20021;-87
2022/11/19 06:39:12;;;;;;;9.48;5.65;;;;;;;;;;6135464;23;20032;-87
2022/11/19 06:41:38;;;;;;;7.53;5.38;;;;;;;;;;6135049;23;20021;-87
2022/11/19 06:44:04;;;;;;;7.53;5.53;;;;;;;;;;6134834;23;20454;-87
2022/11/19 06:46:31;;;;;;;7.38;4.82;;;;;;;;;;6160134;23;20464;-87
2022/11/19 06:48:57;;;;;;;7.10;5.28;;;;;;;;;;6136175;23;20021;-86
2022/11/19 06:51:23;;;;;;;8.57;5.22;;;;;;;;;;6135317;23;20170;-86
2022/11/19 06:53:52;;;;;;;9.68;5.75;;;;;;;;;;6136331;23;20017;-87
2022/11/19 06:56:18;;;;;;;7.65;5.60;;;;;;;;;;6160483;23;20454;-87
2022/11/19 06:58:44;;;;;;;6.40;5.20;;;;;;;;;;6136212;23;20032;-86
2022/11/19 07:01:10;;;;;;;8.02;5.15;;;;;;;;;;6136248;23;20023;-87
2022/11/19 07:03:36;;;;;;;6.95;4.93;;;;;;;;;;6186137;23;20025;-86
2022/11/19 07:06:03;;;;;;;9.02;5.68;;;;;;;;;;6161577;23;20021;-87
2022/11/19 07:08:33;;;;;;;6.60;4.75;;;;;;;;;;6135838;23;20028;-86
2022/11/19 07:10:59;;;;;;;7.57;5.80;;;;;;;;;;6136262;23;20024;-86
2022/11/19 07:13:55;;;;;;;9.02;5.57;;;;;;;;;;6136778;23;20052;-86
2022/11/19 07:16:11;;;;;;;8.02;5.40;;;;;;;;;;6160445;23;20021;-88
2022/11/19 07:18:40;;;;;;;9.07;6.00;;;;;;;;;;6137382;23;20047;-87
2022/11/19 07:21:06;;;;;;;8.85;5.43;;;;;;;;;;6137335;23;20017;-86
2022/11/19 07:23:32;;;;;;;11.13;6.10;;;;;;;;;;6137611;23;20025;-87
2022/11/19 07:26:02;;;;;;;8.57;5.50;;;;;;;;;;6134923;23;20021;-87
2022/11/19 07:28:28;;;;;;;7.28;5.30;;;;;;;;;;6160878;23;20025;-88
2022/11/19 07:30:54;;;;;;;9.25;5.47;;;;;;;;;;6135341;23;20021;-87
2022/11/19 07:33:20;;;;;;;5.68;4.50;;;;;;;;;;6135154;23;20032;-87
2022/11/19 07:35:47;;;;;;;6.55;5.40;;;;;;;;;;6137014;23;20021;-89
2022/11/19 07:38:13;;;;;;;7.45;5.25;;;;;;;;;;6160199;23;20025;-89
2022/11/19 07:40:39;;;;;;;9.88;6.05;;;;;;;;;;6135606;23;20100;-88
2022/11/19 07:43:05;;;;;;;6.85;4.80;;;;;;;;;;6135682;23;20025;-88
2022/11/19 07:45:31;;;;;;;7.70;5.40;;;;;;;;;;6160715;23;20055;-88
2022/11/19 07:47:57;;;;;;;7.82;5.03;;;;;;;;;;6136986;23;20386;-89
2022/11/19 07:50:23;;;;;;;6.88;4.90;;;;;;;;;;6138790;23;20021;-87
2022/11/19 07:52:49;;;;;;;11.73;5.40;;;;;;;;;;6137702;23;20029;-88
2022/11/19 07:55:15;;;;;;;6.90;4.90;;;;;;;;;;6162512;23;20028;-87
2022/11/19 07:57:42;;;;;;;6.10;5.03;;;;;;;;;;6162548;23;20075;-87
2022/11/19 08:00:08;;;;;;;6.35;5.53;;;;;;;;;;6137806;23;20029;-88
2022/11/19 08:02:36;;;;;;;8.57;5.45;;;;;;;;;;6162475;23;20087;-90
2022/11/19 08:05:02;;;;;;;7.30;5.45;;;;;;;;;;6137349;23;20029;-86
2022/11/19 08:07:29;;;;;;;11.00;5.32;;;;;;;;;;6138348;23;20020;-85
2022/11/19 08:09:55;;;;;;;7.25;5.25;;;;;;;;;;6136890;23;20021;-86
2022/11/19 08:12:21;;;;;;;7.82;6.03;;;;;;;;;;6137514;23;20060;-85
2022/11/19 08:14:47;;;;;;;8.38;5.70;;;;;;;;;;6138408;23;20028;-88
2022/11/19 08:19:58;;;;;;;7.75;6.15;;;;;;;;;;6161997;23;20533;-90
2022/11/19 08:22:24;;;;;;;9.95;5.35;;;;;;;;;;6137368;23;20021;-90
2022/11/19 08:24:50;;;;;;;9.68;5.47;;;;;;;;;;6187748;23;20099;-86
2022/11/19 08:27:17;;;;;;;6.32;4.93;;;;;;;;;;6160746;23;20021;-85
2022/11/19 08:29:43;;;;;;;10.07;6.75;;;;;;;;;;6136523;23;20028;-85
2022/11/19 08:32:09;;;;;;;8.43;5.55;;;;;;;;;;6136223;23;20099;-85
2022/11/19 08:34:35;;;;;;;10.90;6.20;;;;;;;;;;6161532;23;20099;-85
2022/11/19 08:37:01;;;;;;;8.13;5.22;;;;;;;;;;6137510;23;20056;-86
2022/11/19 08:39:28;;;;;;;8.10;6.32;;;;;;;;;;6160952;23;20029;-86
2022/11/19 08:44:39;;;;;;;7.53;5.25;;;;;;;;;;6160975;23;20036;-86
2022/11/19 08:47:05;;;;;;;9.60;6.05;;;;;;;;;;6136232;23;20024;-87
2022/11/19 08:49:31;;;;;;;7.80;5.85;;;;;;;;;;6136223;23;20458;-86
2022/11/19 08:51:57;;;;;;;8.13;6.18;;;;;;;;;;6161011;23;20043;-87
2022/11/19 08:54:23;;;;;;;8.20;5.90;;;;;;;;;;6137727;23;20021;-87
2022/11/19 08:56:49;;;;;;;8.43;6.00;;;;;;;;;;6162295;23;20025;-87
2022/11/19 08:59:15;;;;;;;10.98;6.50;;;;;;;;;;6160900;23;20021;-87
2022/11/19 09:01:41;;;;;;;11.05;6.70;;;;;;;;;;6135471;23;20355;-87
2022/11/19 09:04:07;;;;;;;10.32;6.32;;;;;;;;;;6135871;23;20021;-87
2022/11/19 09:06:34;;;;;;;9.80;6.07;;;;;;;;;;6160346;23;20024;-87
2022/11/19 09:09:00;;;;;;;11.93;6.68;;;;;;;;;;6137029;23;20109;-89
2022/11/19 09:11:26;;;;;;;9.15;6.50;;;;;;;;;;6160392;23;20425;-91
2022/11/19 09:13:52;;;;;;;8.40;6.00;;;;;;;;;;6136185;23;20028;-91
2022/11/19 09:16:18;;;;;;;8.05;6.43;;;;;;;;;;6160454;23;20130;-90
2022/11/19 09:18:44;;;;;;;11.02;6.72;;;;;;;;;;6136319;23;20024;-91
2022/11/19 09:21:11;;;;;;;10.23;6.75;;;;;;;;;;6160754;23;20017;-91
2022/11/19 09:23:37;;;;;;;7.93;6.25;;;;;;;;;;6160559;23;20099;-91
2022/11/19 09:26:05;;;;;;;7.20;5.20;;;;;;;;;;6135954;23;20021;-90
2022/11/19 09:28:31;;;;;;;10.15;6.50;;;;;;;;;;6135750;23;20025;-90
2022/11/19 09:30:58;;;;;;;8.07;6.18;;;;;;;;;;6136365;23;20084;-91
2022/11/19 09:33:24;;;;;;;9.35;5.65;;;;;;;;;;6160348;23;20459;-91
2022/11/19 09:35:50;;;;;;;7.85;5.63;;;;;;;;;;6160129;23;20028;-91
2022/11/19 09:38:16;;;;;;;7.18;5.72;;;;;;;;;;6160365;23;20427;-91
2022/11/19 09:40:46;;;;;;;8.75;6.03;;;;;;;;;;6161731;23;20021;-90
2022/11/19 09:43:12;;;;;;;8.98;5.68;;;;;;;;;;6135656;23;20067;-90
2022/11/19 09:45:38;;;;;;;8.52;5.40;;;;;;;;;;6160648;23;20017;-90
2022/11/19 09:48:12;;;;;;;15.48;5.90;;;;;;;;;;6160252;23;20489;-90
2022/11/19 09:50:48;;;;;;;13.27;5.75;;;;;;;;;;6135389;23;20024;-91
2022/11/19 09:53:16;;;;;;;7.43;5.43;;;;;;;;;;6135618;23;20063;-90
2022/11/19 09:55:44;;;;;;;8.73;5.80;;;;;;;;;;6160036;23;20021;-92
2022/11/19 09:58:19;;;;;;;7.70;5.53;;;;;;;;;;6135272;23;20025;-88
2022/11/19 10:00:45;;;;;;;9.30;6.78;;;;;;;;;;6135306;23;20025;-87
2022/11/19 10:03:14;;;;;;;6.35;5.40;;;;;;;;;;6135079;23;20070;-87
2022/11/19 10:05:40;;;;;;;9.82;5.72;;;;;;;;;;6135252;23;20028;-87
2022/11/19 10:08:17;;;;;;;9.57;5.72;;;;;;;;;;6135183;23;20021;-87
2022/11/19 10:10:49;;;;;;;9.43;5.93;;;;;;;;;;6135629;23;20029;-89
2022/11/19 10:13:18;;;;;;;9.80;6.75;;;;;;;;;;6136132;23;20021;-88
2022/11/19 10:15:44;;;;;;;7.68;5.03;;;;;;;;;;6136549;23;20082;-88
2022/11/19 10:18:20;;;;;;;10.25;6.97;;;;;;;;;;6160854;23;20466;-88
2022/11/19 10:21:00;;;;;;;6.10;5.35;;;;;;;;;;6136426;23;20017;-88
2022/11/19 10:23:26;;;;;;;7.00;5.00;;;;;;;;;;6161562;23;20021;-88
2022/11/19 10:25:57;;;;;;;9.38;5.18;;;;;;;;;;6136556;23;20083;-88
2022/11/19 10:28:29;;;;;;;6.35;4.93;;;;;;;;;;6160943;23;20087;-89
2022/11/19 10:30:58;;;;;;;7.53;5.38;;;;;;;;;;6136342;23;20021;-87
2022/11/19 10:33:32;;;;;;;7.38;5.07;;;;;;;;;;6136515;23;20476;-88
2022/11/19 10:36:04;;;;;;;6.57;4.63;;;;;;;;;;6136667;23;20021;-89
2022/11/19 10:38:36;;;;;;;6.82;5.05;;;;;;;;;;6160893;23;20350;-89
2022/11/19 10:41:04;;;;;;;6.15;4.65;;;;;;;;;;6162316;23;20095;-90
2022/11/19 10:43:36;;;;;;;6.95;4.75;;;;;;;;;;6161289;23;20024;-87
2022/11/19 10:46:04;;;;;;;8.35;5.25;;;;;;;;;;6161509;23;20021;-89
2022/11/19 10:48:36;;;;;;;8.65;5.15;;;;;;;;;;6162330;23;20099;-90
2022/11/19 10:51:09;;;;;;;9.45;6.18;;;;;;;;;;6160956;23;20506;-91
2022/11/19 10:53:36;;;;;;;8.88;5.45;;;;;;;;;;6137414;23;20087;-92
2022/11/19 10:56:09;;;;;;;11.57;5.55;;;;;;;;;;6161975;23;20462;-94
2022/11/19 10:58:46;;;;;;;7.30;4.93;;;;;;;;;;6163136;23;20021;-92
2022/11/19 11:01:16;;;;;;;6.28;4.10;;;;;;;;;;6162065;23;20021;-94
2022/11/19 11:03:48;;;;;;;12.45;5.43;;;;;;;;;;6138223;23;20028;-92
2022/11/19 11:06:14;;;;;;;8.25;5.40;;;;;;;;;;6188463;23;20028;-91
2022/11/19 11:08:51;;;;;;;8.02;5.05;;;;;;;;;;6138176;23;20343;-90
2022/11/19 11:17:18;;;;;;;5.85;4.75;;;;;;;;;;6163920;23;20446;-92
2022/11/19 11:19:44;;;;;;;6.88;4.53;;;;;;;;;;6139632;23;20067;-93
2022/11/19 11:22:10;;;;;;;4.70;3.95;;;;;;;;;;6143123;23;20100;-95
2022/11/19 11:24:38;;;;;;;5.65;4.32;;;;;;;;;;6175663;23;20025;-93
2022/11/19 11:27:29;;;;;;;5.28;4.03;;;;;;;;;;6169677;23;20100;-94
2022/11/19 11:30:11;;;;;;;5.60;4.25;;;;;;;;;;6084557;23;20082;-92
2022/11/19 11:32:37;;;;;;;6.60;4.57;;;;;;;;;;6171792;23;20024;-92
2022/11/19 11:35:04;;;;;;;5.63;4.45;;;;;;;;;;6170423;23;20028;-88
2022/11/19 11:37:30;;;;;;;8.15;4.95;;;;;;;;;;6161876;23;20103;-90
2022/11/19 11:39:57;;;;;;;6.75;4.40;;;;;;;;;;6175722;23;20033;-93
2022/11/19 11:42:25;;;;;;;6.15;4.57;;;;;;;;;;6178120;23;20033;-88
2022/11/19 11:44:59;;;;;;;6.47;4.30;;;;;;;;;;6174942;23;20055;31
2022/11/19 12:56:14;;;;;;;5.53;3.45;;;;;;;;;;6235361;23;20376;-91
2022/11/19 13:04:48;;;;;;;6.95;5.43;;;;;;;;;;6219260;22;20445;-92
2022/11/19 13:39:51;;;;;;;4.38;3.97;;;;;;;;;;6155762;23;20114;-92
2022/11/19 14:02:31;;;;;;;3.80;3.25;;;3.50;99.90;;;;;;6215887;22;20028;-93
2022/11/19 14:59:25;;;;;;;8.30;5.57;;;;;;;;;;6097754;23;20364;-92
2022/11/19 15:52:32;;;;;;;7.80;5.85;;;;;;;;;;6159417;23;21345;-95
2022/11/19 15:55:27;;;;;;;6.53;5.20;;;;;;;;;;6196454;23;20016;-94
2022/11/19 15:58:29;;;;;;;9.18;6.18;;;;;;;;;;6194908;23;20024;-95
2022/11/19 16:01:14;;;;;;;6.85;5.40;;;;;;;;;;6049917;23;20061;-94
2022/11/19 16:04:02;;;;;;;7.97;5.45;;;;;;;;;;6047758;23;20029;-95
2022/11/19 16:06:45;;;;;;;;;;;;;;;;;;;;;
2022/11/19 16:09:19;;;;;;;9.05;6.45;;;;;;;;;;6072175;23;20150;-94
2022/11/19 16:17:44;;;;;;;9.25;6.22;;;;;;;;;;6073808;23;20054;-95
2022/11/19 16:20:33;;;;;;;;;;;;;;;;;;;;;
2022/11/19 16:25:00;;;;;;;9.45;6.38;;;;;;;;;;6074337;23;20029;-95
2022/11/19 16:26:38;;;;;;;9.57;6.47;;;;;;;;;;5987341;23;20034;-95
2022/11/19 16:29:09;;;;;;;15.48;7.20;;;;;;;;;;5965184;23;20095;-95
2022/11/19 16:31:38;;;;;;;10.20;6.07;;;;;;;;;;5965537;23;20019;-95
2022/11/19 16:34:06;;;;;;;10.13;7.03;;;;;;;;;;5965268;23;20060;-94
2022/11/19 16:36:43;;;;;;;8.63;6.15;;;;;;;;;;5994535;23;20487;-95
2022/11/19 16:39:24;;;;;;;9.60;6.78;;;;;;;;;;6131493;23;20028;-94
2022/11/19 16:42:15;;;;;;;9.23;6.32;;;;;;;;;;6133063;23;20080;-95
2022/11/19 16:44:51;;;;;;;13.02;6.97;;;;;;;;;;6137900;23;20446;-95
2022/11/19 16:47:41;;;;;;;14.48;8.63;;;;;;;;;;6137564;23;20013;-96
2022/11/19 16:50:31;;;;;;;10.88;7.03;;;;;;;;;;6075108;23;20090;-95
2022/11/19 16:53:25;;;;;;;;;;;;;;;;;;;;;
2022/11/19 16:56:20;;;;;;;10.18;7.68;;;;;;;;;;6074258;23;20030;-95
2022/11/19 16:59:11;;;;;;;12.52;8.15;;;;;;;;;;6048541;23;20031;-96
2022/11/19 17:01:49;;;;;;;12.30;8.18;;;;;;;;;;6077004;23;20081;-93
2022/11/19 17:04:20;;;;;;;11.32;8.35;;;;;;;;;;6055187;23;20034;-95
2022/11/19 17:06:46;;;;;;;15.95;9.45;;;;;;;;;;6054379;23;20130;-93
2022/11/19 17:09:31;;;;;;;16.50;9.75;;;;;;;;;;6053089;23;20074;-93
2022/11/19 17:15:00;;;;;;;15.65;10.57;;;;;;;;;;6048070;23;20025;-86
2022/11/19 17:17:40;;;;;;;17.80;12.18;;;;;;;;;;6022922;23;20026;-85
2022/11/19 17:20:41;;;;;;;15.65;11.02;;;;;;;;;;6023212;23;20110;-86
2022/11/19 17:23:13;;;;;;;19.15;10.93;;;;;;;;;;6022301;23;20057;-86
2022/11/19 17:25:47;;;;;;;16.75;10.73;;;;;;;;;;6023390;23;20027;-85
2022/11/19 17:28:19;;;;;;;18.15;11.10;;;;;;;;;;6161028;23;20021;-85
2022/11/19 17:30:52;;;;;;;25.13;12.00;;;;;;;;;;6147371;22;20108;-86
2022/11/19 17:33:19;;;;;;;;;;;;;;;;;;6204240;23;20021;-87
2022/11/19 17:35:46;;;;;;;11.73;7.93;;;;;;;;;;6178704;23;19953;-86
2022/11/19 17:38:17;;;;;;;11.35;7.45;;;;;;;;;;6178347;23;20063;-86
2022/11/19 17:40:49;;;;;;;12.93;8.95;;;;;;;;;;6177426;23;20021;-85
2022/11/19 17:46:02;;;;;;;14.90;9.20;;;;;;;;;;6174600;23;20021;-86
2022/11/19 17:48:28;;;;;;;18.80;9.40;;;;;;;;;;6140272;23;20032;-88
2022/11/19 17:50:55;;;;;;;15.27;10.63;;;;;;;;;;6139021;23;20021;-86
2022/11/19 17:53:22;;;;;;;13.32;10.02;;;;;;;;;;6137320;23;20020;-94
2022/11/19 17:55:49;;;;;;;16.45;9.30;;;;;;;;;;6137540;23;20028;-94
2022/11/19 17:58:15;;;;;;;14.40;9.30;;;;;;;;;;6136675;23;20067;-94
2022/11/19 18:00:47;;;;;;;12.98;9.48;;;;;;;;;;6136891;23;20521;-94
2022/11/19 18:03:13;;;;;;;16.15;9.27;;;;;;;;;;6136885;23;20095;-93
2022/11/19 18:05:42;;;;;;;17.13;10.23;;;;;;;;;;6137934;23;20469;-92
2022/11/19 18:08:08;;;;;;;15.52;10.45;;;;;;;;;;6137842;23;20311;-91
2022/11/19 18:10:34;;;;;;;16.63;10.75;;;;;;;;;;6137217;23;20319;-92
2022/11/19 18:13:00;;;;;;;19.85;11.23;;;;;;;;;;6136347;23;20049;-92
2022/11/19 18:15:26;;;;;;;16.48;11.07;;;;;;;;;;6137151;23;20048;-91
2022/11/19 18:17:53;;;;;;;18.90;10.65;;;;;;;;;;6136023;23;20064;-91
2022/11/19 18:20:19;;;;;;;17.15;10.95;;;;;;;;;;6136572;23;20064;-92
2022/11/19 18:22:46;;;;;;;18.75;10.30;;;;;;;;;;6137230;23;20021;-90
2022/11/19 18:25:18;;;;;;;16.42;10.52;;;;;;;;;;6135428;23;20021;-92
2022/11/19 18:27:47;;;;;;;16.42;11.05;;;;;;;;;;6160339;23;20418;-91
2022/11/19 18:30:16;;;;;;;17.38;11.07;;;;;;;;;;6187030;23;20021;-91
2022/11/19 18:32:42;;;;;;;34.38;13.10;;;;;;;;;;6160065;23;20032;-91
2022/11/19 18:35:16;;;;;;;19.88;12.73;;;;;;;;;;6135747;23;20355;-91
2022/11/19 18:37:43;;;;;;;17.35;12.75;;;;;;;;;;6184507;23;20024;-90
2022/11/19 18:40:10;;;;;;;17.52;12.02;;;;;;;;;;6160356;23;20025;-90
2022/11/19 18:42:36;;;;;;;20.15;12.77;;;;;;;;;;6136011;23;20069;-90
2022/11/19 18:45:02;;;;;;;26.85;14.32;;;;;;;;;;6135351;23;20025;-90
2022/11/19 18:47:28;;;;;;;22.75;14.23;;;;;;;;;;6135084;23;20017;-85
2022/11/19 18:49:54;;;;;;;24.92;14.70;;;;;;;;;;6186301;23;20067;-85
2022/11/19 18:52:20;;;;;;;15.88;11.27;;;;;;;;;;6186164;23;20071;-85
2022/11/19 18:54:46;;;;;;;21.60;11.88;;;;;;;;;;6159584;23;20021;-86
2022/11/19 18:57:13;;;;;;;18.05;11.77;;;;;;;;;;6134952;23;20021;-86
2022/11/19 18:59:39;;;;;;;17.40;11.45;;;;;;;;;;6134910;23;20458;-86
2022/11/19 19:02:05;;;;;;;21.73;13.32;;;;;;;;;;6134950;23;20021;-86
2022/11/19 19:04:32;;;;;;;22.77;13.75;;;;;;;;;;6134872;23;20025;-86
2022/11/19 19:06:58;;;;;;;22.17;14.85;;;;;;;;;;6134700;23;20056;-85
2022/11/19 19:09:24;;;;;;;18.00;13.52;;;;;;;;;;6160442;23;20024;-86
2022/11/19 19:14:35;;;;;;;21.42;15.85;;;;;;;;;;6159351;23;20028;-86
2022/11/19 19:17:02;;;;;;;23.38;16.42;;;;;;;;;;6134798;23;20459;-85
2022/11/19 19:19:28;;;;;;;21.42;15.52;;;;;;;;;;6134845;23;20108;-86
2022/11/19 19:21:54;;;;;;;26.50;17.55;;;;;;;;;;6134912;23;20028;-86
2022/11/19 19:24:20;;;;;;;14.45;9.90;;;;;;;;;;6159387;23;20107;-86
2022/11/19 19:26:46;;;;;;;12.60;9.57;;;;;;;;;;6134761;23;20108;-86
2022/11/19 19:29:12;;;;;;;15.48;11.10;;;;;;;;;;6134669;23;20021;-86
2022/11/19 19:31:38;;;;;;;17.55;11.88;;;;;;;;;;6134587;23;20017;-86
2022/11/19 19:34:05;;;;;;;19.40;12.45;;;;;;;;;;6159457;23;20025;-86
2022/11/19 19:36:31;;;;;;;18.77;12.43;;;;;;;;;;6135425;23;20028;-87
2022/11/19 19:38:57;;;;;;;19.50;13.10;;;;;;;;;;6134708;23;20461;-86
2022/11/19 19:41:24;;;;;;;19.08;11.38;;;;;;;;;;6160617;23;20025;-86
2022/11/19 19:43:51;;;;;;;19.45;11.45;;;;;;;;;;6159270;23;20032;-86
2022/11/19 19:46:18;;;;;;;21.30;13.18;;;;;;;;;;6136767;23;20013;-86
2022/11/19 19:48:45;;;;;;;17.10;10.98;;;;;;;;;;6136635;23;20083;-86
2022/11/19 19:51:12;;;;;;;16.83;11.93;;;;;;;;;;6136575;23;20021;-86
2022/11/19 19:53:40;;;;;;;22.70;12.80;;;;;;;;;;6136604;23;20021;-85
2022/11/19 19:56:06;;;;;;;17.15;11.27;;;;;;;;;;6138039;23;20021;-85
2022/11/19 19:58:33;;;;;;;19.70;13.23;;;;;;;;;;6136616;23;20021;-85
2022/11/19 20:01:03;;;;;;;17.58;12.63;;;;;;;;;;6136767;23;20196;-85
2022/11/19 20:03:30;;;;;;;25.67;16.30;;;;;;;;;;6136662;23;20056;-85
2022/11/19 20:05:56;;;;;;;28.17;17.38;;;;;;;;;;6161648;23;20521;-85
2022/11/19 20:08:22;;;;;;;24.95;15.68;;;;;;;;;;6137977;23;20105;-85
2022/11/19 20:10:48;;;;;;;23.85;15.60;;;;;;;;;;6136682;23;20017;-86
2022/11/19 20:13:26;;;;;;;23.75;16.33;;;;;;;;;;6161143;23;20053;-86
2022/11/19 20:15:53;;;;;;;27.52;17.73;;;;;;;;;;6186015;23;20028;-87
2022/11/19 20:18:19;;;;;;;29.75;19.60;;;;;;;;;;6161878;23;20056;-86
2022/11/19 20:20:45;;;;;;;31.90;21.02;;;;;;;;;;6136709;23;20017;-87
2022/11/19 20:23:11;;;;;;;31.23;20.67;;;;;;;;;;6161743;23;20020;-87
2022/11/19 20:25:37;;;;;;;34.75;22.17;;;;;;;;;;6187760;23;20485;-87
2022/11/19 20:28:03;;;;;;;36.17;20.55;;;;;;;;;;6137323;23;20155;-86
2022/11/19 20:30:29;;;;;;;32.47;19.58;;;;;;;;;;6136667;23;20021;-87
2022/11/19 20:32:55;;;;;;;30.83;18.55;;;;;;;;;;6136809;23;20028;-88
2022/11/19 20:35:22;;;;;;;35.28;19.67;;;;;;;;;;6161210;23;20056;-88
2022/11/19 20:37:48;;;;;;;21.75;13.70;;;;;;;;;;6161518;23;20096;-87
2022/11/19 20:40:15;;;;;;;24.08;15.68;;;;;;;;;;6162345;23;20352;-87
2022/11/19 20:45:26;;;;;;;14.38;10.02;;;;;;;;;;6187752;23;20031;-87
2022/11/19 20:47:52;;;;;;;13.43;9.50;;;;;;;;;;6161404;23;20021;-87
2022/11/19 20:50:18;;;;;;;13.20;9.52;;;;;;;;;;6136123;23;20017;-87
2022/11/19 20:52:44;;;;;;;15.73;10.07;;;;;;;;;;6188354;23;20051;-87
2022/11/19 20:55:11;;;;;;;18.27;10.65;;;;;;;;;;6161110;23;20024;-87
2022/11/19 20:57:37;;;;;;;19.30;10.90;;;;;;;;;;6160681;23;20025;-87
2022/11/19 21:00:03;;;;;;;14.40;9.73;;;;;;;;;;6136096;23;20031;-88
2022/11/19 21:02:30;;;;;;;14.73;10.75;;;;;;;;;;6160342;23;20528;-88
2022/11/19 21:04:56;;;;;;;20.77;12.63;;;;;;;;;;6162102;23;20021;-87
2022/11/19 21:07:22;;;;;;;21.95;13.50;;;;;;;;;;6136075;23;20465;-87
2022/11/19 21:09:48;;;;;;;18.27;11.85;;;;;;;;;;6187016;23;20473;-86
2022/11/19 21:12:14;;;;;;;18.90;12.07;;;;;;;;;;6137559;23;20025;-87
2022/11/19 21:14:40;;;;;;;21.00;13.65;;;;;;;;;;6162032;23;20021;-87
2022/11/19 21:17:07;;;;;;;16.17;12.30;;;;;;;;;;6135987;23;20028;-86
2022/11/19 21:19:33;;;;;;;19.63;12.68;;;;;;;;;;6160528;23;20589;-87
2022/11/19 21:21:59;;;;;;;19.52;12.38;;;;;;;;;;6188261;23;20021;-87
2022/11/19 21:24:25;;;;;;;24.25;13.55;;;;;;;;;;6187304;23;20097;-87
2022/11/19 21:26:51;;;;;;;17.75;12.27;;;;;;;;;;6135811;23;20017;-88
2022/11/19 21:29:17;;;;;;;23.88;15.55;;;;;;;;;;6136713;23;20096;-88
2022/11/19 21:31:45;;;;;;;23.60;13.40;;;;;;;;;;6136044;23;20055;-88
2022/11/19 21:34:12;;;;;;;23.65;14.68;;;;;;;;;;6161994;23;20103;-87
2022/11/19 21:36:40;;;;;;;21.05;12.88;;;;;;;;;;6135978;23;20454;-87
2022/11/19 21:39:07;;;;;;;28.63;14.38;;;;;;;;;;6187653;23;20331;-87
2022/11/19 21:41:36;;;;;;;22.55;12.52;;;;;;;;;;6137016;23;20303;-88
2022/11/19 21:44:06;;;;;;;24.63;13.38;;;;;;;;;;6135785;23;20027;-87
2022/11/19 21:46:33;;;;;;;21.63;13.68;;;;;;;;;;6136965;23;20079;-87
2022/11/19 21:48:59;;;;;;;27.42;14.55;;;;;;;;;;6160940;23;20029;-87
2022/11/19 21:51:25;;;;;;;20.38;12.95;;;;;;;;;;6160381;23;20327;-88
2022/11/19 21:53:58;;;;;;;23.45;15.45;;;;;;;;;;6160476;23;20029;-87
2022/11/19 21:56:24;;;;;;;23.05;14.70;;;;;;;;;;6135531;23;20343;-89
2022/11/19 21:58:50;;;;;;;21.27;13.98;;;;;;;;;;6136022;23;20021;-89
2022/11/19 22:01:16;;;;;;;24.30;14.98;;;;;;;;;;6160649;23;20021;-87
2022/11/19 22:03:43;;;;;;;23.30;15.15;;;;;;;;;;6160884;23;20025;-88
2022/11/19 22:06:09;;;;;;;25.25;14.23;;;;;;;;;;6161025;23;20064;-87
2022/11/19 22:08:37;;;;;;;23.17;13.90;;;;;;;;;;6135448;23;20028;-89
2022/11/19 22:11:27;;;;;;;29.73;16.00;;;;;;;;;;6136040;23;20024;-87
2022/11/19 22:13:53;;;;;;;29.15;14.73;;;;;;;;;;6161598;23;20024;-87
2022/11/19 22:16:19;;;;;;;17.50;11.65;;;;;;;;;;6161659;23;20060;-89
2022/11/19 22:18:45;;;;;;;17.90;12.15;;;;;;;;;;6160117;23;20029;-88
2022/11/19 22:21:12;;;;;;;19.42;12.85;;;;;;;;;;6135435;23;20397;-89
2022/11/19 22:23:38;;;;;;;24.38;14.23;;;;;;;;;;6135428;23;20017;-89
2022/11/19 22:26:08;;;;;;;24.05;13.70;;;;;;;;;;6135505;23;20353;-88
2022/11/19 22:28:34;;;;;;;21.08;13.70;;;;;;;;;;6136232;23;20402;-87
2022/11/19 22:31:04;;;;;;;17.75;12.13;;;;;;;;;;6135653;23;20017;-87
2022/11/19 22:33:31;;;;;;;24.58;13.80;;;;;;;;;;6161317;23;20039;-88
2022/11/19 22:35:58;;;;;;;23.13;13.43;;;;;;;;;;6135479;23;20035;-88
2022/11/19 22:38:24;;;;;;;25.60;14.55;;;;;;;;;;6160420;23;20096;-88
2022/11/19 22:40:50;;;;;;;23.15;13.38;;;;;;;;;;6136582;23;20021;-88
2022/11/19 22:43:16;;;;;;;21.58;12.45;;;;;;;;;;6135722;23;20450;-89
2022/11/19 22:45:45;;;;;;;23.23;13.48;;;;;;;;;;6159823;23;20021;-88
2022/11/19 22:48:11;;;;;;;21.77;13.48;;;;;;;;;;6135432;23;20075;-90
2022/11/19 22:50:41;;;;;;;23.13;11.65;;;;;;;;;;6135256;23;20021;-87
2022/11/19 22:53:07;;;;;;;20.98;11.65;;;;;;;;;;6135906;23;20025;-88
2022/11/19 22:55:34;;;;;;;24.70;12.27;;;;;;;;;;6135139;23;20021;-88
2022/11/19 22:58:03;;;;;;;19.80;11.63;;;;;;;;;;6136585;23;20112;-88
2022/11/19 23:00:43;;;;;;;16.13;11.27;;;;;;;;;;6160631;23;20032;-87
2022/11/19 23:03:09;;;;;;;17.75;11.23;;;;;;;;;;6159685;23;20100;-90
2022/11/19 23:05:35;;;;;;;19.02;11.07;;;;;;;;;;6161347;23;20100;-90
2022/11/19 23:08:02;;;;;;;18.25;10.15;;;;;;;;;;6135294;23;20017;-88
2022/11/19 23:10:28;;;;;;;17.83;10.98;;;;;;;;;;6135680;23;20083;-89
2022/11/19 23:15:39;;;;;;;16.52;11.38;;;;;;;;;;6159472;23;20120;-90
2022/11/19 23:18:05;;;;;;;20.60;11.63;;;;;;;;;;6135681;23;20032;-89
2022/11/19 23:20:31;;;;;;;15.63;10.88;;;;;;;;;;6134568;23;20017;-87
2022/11/19 23:22:57;;;;;;;19.17;12.30;;;;;;;;;;6135270;23;20032;-88
2022/11/19 23:25:23;;;;;;;18.17;11.57;;;;;;;;;;6135056;23;20017;-87
2022/11/19 23:27:49;;;;;;;18.52;11.27;;;;;;;;;;6159509;23;20036;-91
2022/11/19 23:30:15;;;;;;;21.52;13.05;;;;;;;;;;6186228;23;20064;-87
2022/11/19 23:32:41;;;;;;;22.75;12.60;;;;;;;;;;6135238;23;20032;-90
2022/11/19 23:35:08;;;;;;;19.30;11.45;;;;;;;;;;6135291;23;20028;-88
2022/11/19 23:37:34;;;;;;;19.40;11.88;;;;;;;;;;6135025;23;20466;-88
2022/11/19 23:40:00;;;;;;;20.63;12.15;;;;;;;;;;6135237;23;20424;-89
2022/11/19 23:42:26;;;;;;;18.52;12.60;;;;;;;;;;6159805;23;20477;-88
2022/11/19 23:44:52;;;;;;;16.48;11.07;;;;;;;;;;6134804;23;20462;-87
2022/11/19 23:47:18;;;;;;;20.50;11.98;;;;;;;;;;6135526;23;20517;-90
2022/11/19 23:49:44;;;;;;;19.33;10.65;;;;;;;;;;6135198;23;20025;-91
2022/11/19 23:52:10;;;;;;;16.40;11.75;;;;;;;;;;6159497;23;20021;-88
2022/11/19 23:54:36;;;;;;;15.88;11.00;;;;;;;;;;6159678;23;20025;-88
2022/11/19 23:57:03;;;;;;;18.33;11.35;;;;;;;;;;6135322;23;20097;-90
2022/11/19 23:59:29;;;;;;;17.42;11.10;;;;;;;;;;6159932;23;20025;-91
